Time;durP1;ratioP1;P1;durP2;ratioP2;P2;SDS_P1;SDS_P2;PMS_P1;PMS_P2;Temp;Humidity;BMP_temperature;BMP_pressure;BME280_temperature;BME280_humidity;BME280_pressure;Samples;Min_cycle;Max_cycle;Signal;HPM_P1;HPM_P2
2022/04/07 00:01:42;;;;;;;;;;;;;;;9.66;74.22;98304.03;4915082;29;1962;-91
2022/04/07 00:04:07;;;;;;;;;;;;;;;9.65;73.96;98296.97;4915857;29;1316;-91
2022/04/07 00:06:32;;;;;;;;;;;;;;;9.57;74.10;98281.44;4917203;29;1315;-91
2022/04/07 00:09:00;;;;;;;;;;;;;;;9.47;74.89;98275.19;4912465;29;1339;-91
2022/04/07 00:11:25;;;;;;;;;;;;;;;9.38;74.50;98266.22;4901727;29;1442;-91
2022/04/07 00:13:51;;;;;;;;;;;;;;;9.35;74.83;98272.38;4912579;29;1212;-90
2022/04/07 00:16:16;;;;;;;;;;;;;;;9.34;74.08;98268.03;4899913;29;1222;-91
2022/04/07 00:18:41;;;;;;;;;;;;;;;9.37;73.98;98261.09;4907573;29;1511;-91
2022/04/07 00:21:11;;;;;;;;;;;;;;;9.38;74.40;98251.78;4918745;29;1882;-91
2022/04/07 00:23:37;;;;;;;;;;;;;;;9.43;74.23;98251.63;4916818;29;1422;-91
2022/04/07 00:26:02;;;;;;;;;;;;;;;9.48;73.47;98243.22;4917409;29;1210;-91
2022/04/07 00:28:27;;;;;;;;;;;;;;;9.49;73.10;98237.44;4917191;29;1428;-91
2022/04/07 00:30:52;;;;;;;;;;;;;;;9.48;73.44;98230.38;4916813;29;1416;-91
2022/04/07 00:33:17;;;;;;;;;;;;;;;9.48;73.40;98224.91;4916833;29;1033;-91
2022/04/07 00:35:42;;;;;;;;;;;;;;;9.52;72.81;98218.81;4900956;29;1421;-90
2022/04/07 00:38:08;;;;;;;;;;;;;;;9.52;73.48;98213.34;4897956;29;1290;-91
2022/04/07 00:40:33;;;;;;;;;;;;;;;9.53;72.93;98225.88;4898233;29;1886;-90
2022/04/07 00:42:58;;;;;;;;;;;;;;;9.48;72.47;98210.47;4906975;29;1364;-91
2022/04/07 00:45:23;;;;;;;;;;;;;;;9.52;72.94;98207.88;4916939;29;1629;-92
2022/04/07 00:47:49;;;;;;;;;;;;;;;9.56;72.81;98197.88;4916808;29;1316;-90
2022/04/07 00:50:16;;;;;;;;;;;;;;;9.56;73.23;98195.16;4912499;29;1397;-91
2022/04/07 00:52:43;;;;;;;;;;;;;;;9.61;73.44;98195.00;4916846;29;1266;-91
2022/04/07 00:55:12;;;;;;;;;;;;;;;9.60;72.82;98190.66;4916889;29;1221;-91
2022/04/07 00:57:40;;;;;;;;;;;;;;;9.61;72.95;98192.25;4916763;29;1385;-91
2022/04/07 01:00:07;;;;;;;;;;;;;;;9.64;73.38;98197.03;4917717;29;1890;-91
2022/04/07 01:02:32;;;;;;;;;;;;;;;9.65;73.29;98196.72;4916618;29;1558;-91
2022/04/07 01:04:57;;;;;;;;;;;;;;;9.62;74.50;98193.81;4916299;29;1203;-90
2022/04/07 01:07:23;;;;;;;;;;;;;;;9.50;76.23;98191.81;4916934;29;1190;-91
2022/04/07 01:09:48;;;;;;;;;;;;;;;9.52;76.55;98186.84;4916551;29;1304;-91
2022/04/07 01:12:13;;;;;;;;;;;;;;;9.47;77.54;98189.75;4916498;29;1274;-90
2022/04/07 01:14:55;;;;;;;;;;;;;;;9.42;76.88;98188.00;4912911;29;1766;-91
2022/04/07 01:17:20;;;;;;;;;;;;;;;9.37;76.61;98154.63;4897843;29;1275;-91
2022/04/07 01:19:45;;;;;;;;;;;;;;;9.35;77.55;98171.34;4915799;29;1907;-91
2022/04/07 01:22:11;;;;;;;;;;;;;;;9.23;77.54;98170.44;4920443;29;1206;-91
2022/04/07 01:24:36;;;;;;;;;;;;;;;9.11;78.55;98171.13;4920035;29;1156;-90
2022/04/07 01:27:03;;;;;;;;;;;;;;;9.11;78.94;98161.00;4920244;29;1439;-91
2022/04/07 01:29:29;;;;;;;;;;;;;;;9.08;79.27;98155.41;4920484;29;1483;-91
2022/04/07 01:31:54;;;;;;;;;;;;;;;9.19;80.48;98137.53;4921357;29;877;-91
2022/04/07 01:34:19;;;;;;;;;;;;;;;9.20;79.49;98136.41;4919717;29;1090;-91
2022/04/07 01:36:45;;;;;;;;;;;;;;;9.31;80.62;98129.44;4920311;29;1292;-92
2022/04/07 01:39:13;;;;;;;;;;;;;;;9.25;80.26;98144.41;4921037;29;1270;-91
2022/04/07 01:41:39;;;;;;;;;;;;;;;9.21;81.90;98145.38;4922763;29;1898;-91
2022/04/07 01:44:04;;;;;;;;;;;;;;;9.15;81.54;98133.88;4920540;29;1486;-91
2022/04/07 01:46:31;;;;;;;;;;;;;;;9.14;82.30;98147.84;4920058;29;1498;-91
2022/04/07 01:48:58;;;;;;;;;;;;;;;9.04;83.16;98149.81;4918138;29;1503;-90
2022/04/07 01:51:24;;;;;;;;;;;;;;;9.00;83.10;98156.25;4919205;29;1517;-91
2022/04/07 01:53:49;;;;;;;;;;;;;;;8.94;83.65;98174.72;4919667;29;1263;-90
2022/04/07 01:56:16;;;;;;;;;;;;;;;8.62;85.22;98159.72;4919776;29;1231;-91
2022/04/07 01:58:41;;;;;;;;;;;;;;;8.48;82.02;98164.59;4919576;29;1166;-91
2022/04/07 02:01:06;;;;;;;;;;;;;;;8.51;82.79;98146.75;4919447;29;1890;-91
2022/04/07 02:03:31;;;;;;;;;;;;;;;8.54;83.05;98140.66;4913046;29;1247;-92
2022/04/07 02:06:16;;;;;;;;;;;;;;;8.51;82.35;98138.56;4902708;29;1505;-91
2022/04/07 02:08:41;;;;;;;;;;;;;;;8.61;82.99;98141.75;4920897;29;898;-91
2022/04/07 02:11:07;;;;;;;;;;;;;;;8.56;82.77;98146.59;4919530;29;1331;-91
2022/04/07 02:13:33;;;;;;;;;;;;;;;8.47;83.12;98146.63;4918917;29;1634;-90
2022/04/07 02:15:59;;;;;;;;;;;;;;;8.53;83.94;98118.06;4919151;29;1693;-91
2022/04/07 02:18:24;;;;;;;;;;;;;;;8.64;83.50;98132.94;4918281;29;1171;-92
2022/04/07 02:20:49;;;;;;;;;;;;;;;8.69;82.82;98110.94;4919201;29;1951;-91
2022/04/07 02:23:14;;;;;;;;;;;;;;;8.68;82.74;98092.97;4920097;29;1104;-91
2022/04/07 02:25:39;;;;;;;;;;;;;;;8.56;81.81;98090.16;4919339;29;1100;-92
2022/04/07 02:28:04;;;;;;;;;;;;;;;8.52;82.67;98082.94;4918811;29;1558;-90
2022/04/07 02:30:29;;;;;;;;;;;;;;;8.45;82.31;98083.44;4918495;29;1175;-91
2022/04/07 02:32:55;;;;;;;;;;;;;;;8.53;82.90;98073.63;4918906;29;1507;-91
2022/04/07 02:35:20;;;;;;;;;;;;;;;8.63;82.62;98071.34;4919118;29;1274;-91
2022/04/07 02:37:45;;;;;;;;;;;;;;;8.72;83.50;98065.88;4918729;29;1270;-91
2022/04/07 02:40:11;;;;;;;;;;;;;;;8.75;81.44;98069.88;4917076;29;1899;-92
2022/04/07 02:42:36;;;;;;;;;;;;;;;8.81;81.88;98053.00;4918914;29;1326;-91
2022/04/07 02:45:02;;;;;;;;;;;;;;;8.75;81.73;98058.97;4918535;29;1198;-91
2022/04/07 02:47:31;;;;;;;;;;;;;;;8.69;82.44;98059.13;4914817;29;1443;-91
2022/04/07 02:49:56;;;;;;;;;;;;;;;8.65;82.26;98041.84;4904203;29;1368;-91
2022/04/07 02:52:21;;;;;;;;;;;;;;;8.62;83.14;98036.22;4899918;29;1485;-91
2022/04/07 02:54:48;;;;;;;;;;;;;;;8.63;82.70;98025.00;4899405;29;1159;-91
2022/04/07 02:57:18;;;;;;;;;;;;;;;8.66;82.72;98013.44;4950470;23;1760;-91
2022/04/07 02:59:43;;;;;;;;;;;;;;;8.68;82.44;98027.53;4940630;29;1903;-90
2022/04/07 03:02:14;;;;;;;;;;;;;;;8.70;82.52;98019.81;4940616;29;1466;-91
2022/04/07 03:04:39;;;;;;;;;;;;;;;8.66;82.62;98015.38;4940486;29;1643;-91
2022/04/07 03:07:34;;;;;;;;;;;;;;;8.63;83.26;98000.44;4940311;29;1297;-90
2022/04/07 03:09:59;;;;;;;;;;;;;;;8.64;82.74;98006.72;4943058;29;1502;-91
2022/04/07 03:12:41;;;;;;;;;;;;;;;8.58;80.50;97986.22;4956385;29;1194;-90
2022/04/07 03:15:07;;;;;;;;;;;;;;;8.67;80.04;97997.88;4955709;29;1383;-91
2022/04/07 03:26:50;;;;;;;;;;;;;;;8.80;77.64;97975.00;4935952;29;1332;-90
2022/04/07 03:29:21;;;;;;;;;;;;;;;8.77;78.62;97966.69;4928455;29;1353;-90
2022/04/07 03:31:46;;;;;;;;;;;;;;;8.78;78.56;97976.47;4940085;29;1201;-90
2022/04/07 03:34:14;;;;;;;;;;;;;;;8.81;77.31;97960.25;4955931;28;1201;-90
2022/04/07 03:36:40;;;;;;;;;;;;;;;8.93;76.88;97965.00;4939501;29;1261;-90
2022/04/07 03:39:05;;;;;;;;;;;;;;;8.97;75.55;97949.53;4939957;29;1332;-91
2022/04/07 03:41:30;;;;;;;;;;;;;;;9.04;76.26;97947.09;4939526;28;1890;-91
2022/04/07 03:43:56;;;;;;;;;;;;;;;9.03;75.67;97945.47;4939482;28;1212;-90
2022/04/07 03:46:21;;;;;;;;;;;;;;;9.00;75.91;97940.72;4948226;28;1490;-90
2022/04/07 03:48:50;;;;;;;;;;;;;;;9.04;74.50;97934.25;4955681;29;1297;-91
2022/04/07 03:51:16;;;;;;;;;;;;;;;9.07;75.16;97933.59;4951599;29;1446;-90
2022/04/07 03:54:17;;;;;;;;;;;;;;;9.02;76.07;97932.97;4955367;28;1200;-92
2022/04/07 03:56:42;;;;;;;;;;;;;;;9.06;75.97;97928.47;4939423;29;1290;-91
2022/04/07 03:59:07;;;;;;;;;;;;;;;9.13;75.74;97926.00;4949557;29;1557;-91
2022/04/07 04:01:35;;;;;;;;;;;;;;;9.13;74.55;97931.44;4955679;29;1898;-90
2022/04/07 04:04:03;;;;;;;;;;;;;;;9.19;74.07;97932.03;4955138;29;1209;-91
2022/04/07 04:06:48;;;;;;;;;;;;;;;;;;;;;
2022/04/07 04:09:18;;;;;;;;;;;;;;;9.20;74.40;97928.97;4956176;29;1481;-91
2022/04/07 04:12:07;;;;;;;;;;;;;;;9.17;75.04;97915.22;4940666;28;1514;-91
2022/04/07 04:14:33;;;;;;;;;;;;;;;9.22;72.87;97915.00;4936349;29;1329;-91
2022/04/07 04:16:58;;;;;;;;;;;;;;;9.16;74.23;97908.97;4920217;29;1191;-90
2022/04/07 04:19:26;;;;;;;;;;;;;;;9.19;74.13;97904.75;4920787;29;1307;-90
2022/04/07 04:21:51;;;;;;;;;;;;;;;9.14;74.60;97911.22;4929557;29;1907;-91
2022/04/07 04:24:17;;;;;;;;;;;;;;;9.14;73.89;97894.84;4938980;29;1150;-90
2022/04/07 04:26:43;;;;;;;;;;;;;;;9.07;73.95;97883.66;4939036;29;1304;-91
2022/04/07 04:29:08;;;;;;;;;;;;;;;9.10;74.24;97877.56;4956463;29;937;-90
2022/04/07 04:31:33;;;;;;;;;;;;;;;9.05;75.73;97884.00;4938995;29;1332;-91
2022/04/07 04:33:59;;;;;;;;;;;;;;;9.05;73.97;97880.47;4939124;29;1261;-90
2022/04/07 04:36:24;;;;;;;;;;;;;;;9.10;74.80;97874.81;4938913;28;1304;-89
2022/04/07 04:38:49;;;;;;;;;;;;;;;9.15;74.34;97866.41;4937678;29;1588;-90
2022/04/07 04:41:15;;;;;;;;;;;;;;;9.19;74.35;97859.16;4954797;29;1898;-90
2022/04/07 04:43:40;;;;;;;;;;;;;;;9.18;73.08;97860.31;4954728;29;1317;-90
2022/04/07 04:46:07;;;;;;;;;;;;;;;9.27;73.58;97855.53;4954718;29;1446;-90
2022/04/07 04:48:32;;;;;;;;;;;;;;;9.24;72.95;97852.69;4938739;29;1349;-90
2022/04/07 04:50:58;;;;;;;;;;;;;;;9.26;74.18;97853.97;4940346;29;1506;-91
2022/04/07 04:53:23;;;;;;;;;;;;;;;9.25;72.07;97860.56;4943304;29;1333;-89
2022/04/07 04:55:49;;;;;;;;;;;;;;;9.33;72.11;97847.94;4953601;29;1454;-89
2022/04/07 04:58:14;;;;;;;;;;;;;;;9.33;72.21;97840.56;4938178;29;1240;-89
2022/04/07 05:00:39;;;;;;;;;;;;;;;9.32;72.26;97832.69;4938473;29;1957;-89
2022/04/07 05:03:05;;;;;;;;;;;;;;;9.33;72.49;97829.63;4937918;29;1411;-89
2022/04/07 05:05:30;;;;;;;;;;;;;;;9.32;72.59;97835.44;4938224;29;1526;-88
2022/04/07 05:07:55;;;;;;;;;;;;;;;9.34;72.99;97831.25;4938638;29;1388;-88
2022/04/07 05:10:20;;;;;;;;;;;;;;;9.30;73.18;97830.31;4954805;29;1315;-89
2022/04/07 05:12:45;;;;;;;;;;;;;;;9.26;73.07;97831.31;4942954;29;1363;-89
2022/04/07 05:15:10;;;;;;;;;;;;;;;9.23;73.25;97840.97;4955144;28;880;-89
2022/04/07 05:17:36;;;;;;;;;;;;;;;9.22;72.66;97822.19;4955025;28;1285;-89
2022/04/07 05:20:01;;;;;;;;;;;;;;;9.23;73.07;97810.16;4937968;29;1890;-88
2022/04/07 05:22:26;;;;;;;;;;;;;;;9.25;73.03;97825.06;4955439;29;993;-88
2022/04/07 05:24:52;;;;;;;;;;;;;;;9.29;72.77;97815.06;4938026;29;1028;-88
2022/04/07 05:27:17;;;;;;;;;;;;;;;9.35;73.70;97804.75;4938086;29;1286;-89
2022/04/07 05:29:42;;;;;;;;;;;;;;;9.33;72.88;97801.53;4955249;29;837;-89
2022/04/07 05:32:07;;;;;;;;;;;;;;;9.32;73.04;97798.00;4938055;29;1185;-89
2022/04/07 05:34:32;;;;;;;;;;;;;;;9.30;74.02;97794.03;4937839;29;1328;-88
2022/04/07 05:36:58;;;;;;;;;;;;;;;9.24;72.98;97790.72;4937894;29;1269;-88
2022/04/07 05:39:23;;;;;;;;;;;;;;;9.21;73.30;97793.31;4953984;29;1091;-88
2022/04/07 05:41:48;;;;;;;;;;;;;;;9.21;73.01;97791.38;4938017;29;1894;-88
2022/04/07 05:44:13;;;;;;;;;;;;;;;9.28;72.57;97783.44;4953841;29;945;-89
2022/04/07 05:46:38;;;;;;;;;;;;;;;9.43;73.65;97771.09;4955165;28;1178;-88
2022/04/07 05:49:04;;;;;;;;;;;;;;;9.51;73.68;97764.72;4954206;29;984;-89
2022/04/07 05:51:29;;;;;;;;;;;;;;;9.51;73.34;97763.91;4953846;29;1045;-89
2022/04/07 05:53:54;;;;;;;;;;;;;;;9.51;73.15;97759.25;4937781;29;1222;-89
2022/04/07 05:56:19;;;;;;;;;;;;;;;9.64;73.24;97757.31;4954915;28;1182;-89
2022/04/07 05:58:44;;;;;;;;;;;;;;;9.61;72.33;97747.09;4953980;29;1051;-89
2022/04/07 06:01:09;;;;;;;;;;;;;;;9.63;72.37;97742.88;4953748;29;1903;-88
2022/04/07 06:03:36;;;;;;;;;;;;;;;9.72;71.67;97737.28;4954757;29;806;-88
2022/04/07 06:06:01;;;;;;;;;;;;;;;9.78;72.31;97735.94;4955630;28;1407;-89
2022/04/07 06:08:26;;;;;;;;;;;;;;;9.83;72.28;97722.84;4958347;28;1182;-89
2022/04/07 06:10:51;;;;;;;;;;;;;;;9.89;71.62;97712.47;4957329;29;1049;-88
2022/04/07 06:13:16;;;;;;;;;;;;;;;9.82;71.55;97706.78;4940954;29;1291;-89
2022/04/07 06:15:41;;;;;;;;;;;;;;;9.78;72.94;97697.69;4958459;29;878;-89
2022/04/07 06:18:07;;;;;;;;;;;;;;;9.73;72.67;97700.66;4958182;28;1317;-89
2022/04/07 06:20:32;;;;;;;;;;;;;;;9.76;73.31;97689.84;4957112;29;1954;-89
2022/04/07 06:22:57;;;;;;;;;;;;;;;9.79;72.58;97677.41;4956107;29;969;-89
2022/04/07 06:25:22;;;;;;;;;;;;;;;9.78;73.39;97682.06;4940076;29;1340;-88
2022/04/07 06:27:47;;;;;;;;;;;;;;;9.76;73.78;97661.72;4940818;29;1322;-89
2022/04/07 06:30:17;;;;;;;;;;;;;;;9.71;73.04;97653.75;4956899;29;1246;-89
2022/04/07 06:32:42;;;;;;;;;;;;;;;9.76;73.67;97651.59;4956767;29;1307;-89
2022/04/07 06:35:08;;;;;;;;;;;;;;;9.84;74.44;97647.16;4956915;29;1470;-89
2022/04/07 06:37:49;;;;;;;;;;;;;;;9.84;73.25;97639.75;4956636;29;1294;-88
2022/04/07 06:40:14;;;;;;;;;;;;;;;9.80;73.63;97633.38;4956616;29;1891;-88
2022/04/07 06:42:40;;;;;;;;;;;;;;;9.82;73.91;97622.09;4940684;29;1212;-89
2022/04/07 06:45:05;;;;;;;;;;;;;;;9.80;74.21;97603.31;4956353;29;1309;-88
2022/04/07 06:47:35;;;;;;;;;;;;;;;9.86;75.21;97599.22;4956535;29;1186;-89
2022/04/07 06:50:00;;;;;;;;;;;;;;;9.90;74.39;97595.78;4957687;29;905;-89
2022/04/07 06:52:26;;;;;;;;;;;;;;;9.88;75.00;97582.47;4956434;29;964;-89
2022/04/07 06:54:51;;;;;;;;;;;;;;;9.93;74.29;97586.91;4956740;29;1226;-88
2022/04/07 06:57:16;;;;;;;;;;;;;;;9.97;74.22;97580.38;4956257;29;1198;-88
2022/04/07 06:59:41;;;;;;;;;;;;;;;10.03;73.75;97568.06;4957434;29;1953;-89
2022/04/07 07:02:06;;;;;;;;;;;;;;;10.21;73.85;97565.84;4956362;29;909;-88
2022/04/07 07:04:33;;;;;;;;;;;;;;;10.17;74.00;97556.72;4940184;29;1013;-89
2022/04/07 07:06:58;;;;;;;;;;;;;;;10.14;73.47;97541.81;4940332;29;1315;-89
2022/04/07 07:09:23;;;;;;;;;;;;;;;10.10;73.95;97542.88;4940319;29;1317;-89
2022/04/07 07:11:48;;;;;;;;;;;;;;;10.08;73.76;97547.88;4956183;29;909;-88
2022/04/07 07:14:14;;;;;;;;;;;;;;;10.04;73.39;97541.53;4957050;29;905;-88
2022/04/07 07:16:39;;;;;;;;;;;;;;;10.07;73.88;97541.63;4957168;28;1205;-88
2022/04/07 07:19:04;;;;;;;;;;;;;;;10.15;74.04;97521.53;4955985;29;987;-89
2022/04/07 07:21:29;;;;;;;;;;;;;;;10.23;73.12;97528.81;4957097;29;1899;-89
2022/04/07 07:23:54;;;;;;;;;;;;;;;10.28;73.98;97518.78;4957169;29;1040;-89
2022/04/07 07:26:19;;;;;;;;;;;;;;;10.36;73.06;97526.03;4937512;28;1279;-89
2022/04/07 07:28:44;;;;;;;;;;;;;;;10.42;72.76;97508.19;4956930;29;941;-88
2022/04/07 07:31:10;;;;;;;;;;;;;;;10.50;72.95;97501.75;4955753;29;1207;-88
2022/04/07 07:33:35;;;;;;;;;;;;;;;10.51;72.08;97500.63;4955570;29;1199;-89
2022/04/07 07:36:00;;;;;;;;;;;;;;;10.51;71.72;97497.88;4955924;29;881;-89
2022/04/07 07:38:25;;;;;;;;;;;;;;;10.48;72.86;97488.44;4939551;29;1179;-89
2022/04/07 07:40:50;;;;;;;;;;;;;;;10.52;73.18;97483.88;4955517;29;1964;-89
2022/04/07 07:43:15;;;;;;;;;;;;;;;10.56;73.24;97465.59;4955297;29;917;-89
2022/04/07 07:45:40;;;;;;;;;;;;;;;10.58;71.54;97451.56;4956725;29;1114;-89
2022/04/07 07:48:06;;;;;;;;;;;;;;;10.63;72.34;97449.34;4955358;29;1182;-89
2022/04/07 07:50:31;;;;;;;;;;;;;;;10.65;71.79;97457.19;4955402;29;1284;-88
2022/04/07 07:52:56;;;;;;;;;;;;;;;10.56;70.83;97442.91;4955286;29;1151;-90
2022/04/07 07:55:22;;;;;;;;;;;;;;;10.54;72.25;97437.03;4939108;29;1017;-88
2022/04/07 07:57:47;;;;;;;;;;;;;;;10.67;72.02;97449.44;4956344;28;1162;-89
2022/04/07 08:00:15;;;;;;;;;;;;;;;10.74;71.55;97446.84;4955163;29;1890;-89
2022/04/07 08:02:40;;;;;;;;;;;;;;;10.72;71.12;97421.78;4955079;29;1319;-89
2022/04/07 08:05:06;;;;;;;;;;;;;;;10.66;71.38;97423.22;4955062;29;913;-90
2022/04/07 08:07:31;;;;;;;;;;;;;;;10.59;72.02;97429.34;4955362;28;1200;-88
2022/04/07 08:09:57;;;;;;;;;;;;;;;10.54;71.87;97420.63;4955291;29;1336;-89
2022/04/07 08:12:23;;;;;;;;;;;;;;;10.43;72.24;97427.75;4954992;29;1265;-88
2022/04/07 08:14:48;;;;;;;;;;;;;;;10.35;73.09;97415.88;4955931;29;965;-89
2022/04/07 08:17:14;;;;;;;;;;;;;;;10.37;73.33;97412.78;4956224;28;1119;-89
2022/04/07 08:19:40;;;;;;;;;;;;;;;10.50;73.51;97397.84;4954877;29;1205;-89
2022/04/07 08:22:05;;;;;;;;;;;;;;;10.69;73.25;97389.69;4938963;29;1890;-89
2022/04/07 08:24:30;;;;;;;;;;;;;;;10.72;72.92;97399.16;4954633;29;1261;-89
2022/04/07 08:26:55;;;;;;;;;;;;;;;10.79;71.68;97402.03;4954617;29;1272;-89
2022/04/07 08:29:20;;;;;;;;;;;;;;;10.97;71.46;97389.53;4938261;29;1179;-89
2022/04/07 08:31:46;;;;;;;;;;;;;;;11.03;70.24;97373.63;4954692;29;973;-89
2022/04/07 08:34:11;;;;;;;;;;;;;;;10.87;70.81;97370.94;4954518;29;1247;-89
2022/04/07 08:36:36;;;;;;;;;;;;;;;10.83;71.24;97387.28;4953990;28;1337;-89
2022/04/07 08:39:01;;;;;;;;;;;;;;;10.71;70.74;97360.06;4954756;29;1040;-89
2022/04/07 08:41:31;;;;;;;;;;;;;;;10.67;71.76;97353.69;4954541;29;1968;-89
2022/04/07 08:43:57;;;;;;;;;;;;;;;10.63;71.47;97363.78;4954471;29;1272;-89
2022/04/07 08:46:22;;;;;;;;;;;;;;;10.59;71.69;97358.22;4954764;28;1236;-88
2022/04/07 08:48:47;;;;;;;;;;;;;;;10.57;71.73;97346.03;4954412;29;1017;-90
2022/04/07 08:51:13;;;;;;;;;;;;;;;10.52;71.45;97330.72;4938387;29;1166;-89
2022/04/07 08:53:39;;;;;;;;;;;;;;;10.60;71.78;97327.00;4954259;29;889;-89
2022/04/07 08:56:05;;;;;;;;;;;;;;;10.56;71.13;97306.16;4954638;29;1344;-90
2022/04/07 09:51:11;;;;;;;;;;;;;;;10.87;75.35;97165.72;4940392;29;657;-91
2022/04/07 09:56:42;;;;;;;;;;;;;;;11.12;73.69;97130.59;4936135;29;1450;-92
2022/04/07 09:59:26;;;;;;;;;;;;;;;11.03;74.00;97122.63;4921643;29;1536;-91
2022/04/07 10:01:57;;;;;;;;;;;;;;;10.81;74.59;97145.28;4923054;29;1971;-91
2022/04/07 10:04:53;;;;;;;;;;;;;;;10.57;75.91;97130.00;4899632;29;1350;-91
2022/04/07 10:07:24;;;;;;;;;;;;;;;10.21;80.77;97140.25;4879011;29;1224;-91
2022/04/07 10:10:01;;;;;;;;;;;;;;;10.03;81.65;97116.44;4900201;29;1216;-91
2022/04/07 10:12:59;;;;;;;;;;;;;;;10.07;81.92;97114.53;4899250;29;1305;-91
2022/04/07 10:15:42;;;;;;;;;;;;;;;10.21;82.67;97096.50;4922214;29;1411;-91
2022/04/07 10:18:28;;;;;;;;;;;;;;;10.35;82.54;97087.03;4904150;29;1287;-91
2022/04/07 11:03:14;;;;;;;;;;;;;;;10.15;84.11;97013.22;5013841;28;1207;-93
2022/04/07 11:06:12;;;;;;;;;;;;;;;10.03;84.79;97121.91;4999593;28;1386;-92
2022/04/07 12:36:37;;;;;;;;;;;;;;;-142.21;100.00;66915.31;604103;23;1707;-90
2022/04/07 12:40:01;;;;;;;;;;;;;;;-142.21;100.00;66915.31;4961288;28;1721;-92
2022/04/07 12:43:44;;;;;;;;;;;;;;;-142.21;100.00;66915.31;4994660;28;1989;-92
2022/04/07 12:47:08;;;;;;;;;;;;;;;-142.21;100.00;66915.31;5002452;28;1524;-93
2022/04/07 12:50:33;;;;;;;;;;;;;;;-142.21;100.00;66915.31;4998597;28;1358;-92
2022/04/07 12:54:07;;;;;;;;;;;;;;;-142.21;100.00;66915.31;4996801;28;1375;-93
2022/04/07 12:57:35;;;;;;;;;;;;;;;-142.21;100.00;66915.31;4984253;28;1374;-92
2022/04/07 13:01:07;;;;;;;;;;;;;;;-142.21;100.00;66915.31;4992720;28;1315;-93
2022/04/07 13:04:58;;;;;;;;;;;;;;;-142.21;100.00;66915.31;5001094;28;1311;-92
2022/04/07 13:08:22;;;;;;;;;;;;;;;-142.21;100.00;66915.31;4994231;28;1349;-92
2022/04/07 13:11:46;;;;;;;;;;;;;;;-142.21;100.00;66915.31;4996403;28;1286;-91
2022/04/07 13:15:13;;;;;;;;;;;;;;;-142.21;100.00;66915.31;5001144;28;1651;-92
2022/04/07 13:18:37;;;;;;;;;;;;;;;-142.21;100.00;66915.31;5009513;28;1339;-93
2022/04/07 13:22:23;;;;;;;;;;;;;;;;;;;;;
2022/04/07 13:25:47;;;;;;;;;;;;;;;-142.21;100.00;66915.31;5006203;28;1367;-91
2022/04/07 13:33:16;;;;;;;;;;;;;;;-142.21;100.00;66915.31;4975762;28;1469;-92
2022/04/07 13:41:01;;;;;;;;;;;;;;;-142.21;100.00;66915.31;5006779;28;1280;-92
2022/04/07 13:45:04;;;;;;;;;;;;;;;-142.21;100.00;66915.31;4993466;28;1497;-93
2022/04/07 13:48:44;;;;;;;;;;;;;;;-142.21;100.00;66915.31;4893463;29;1443;-92
2022/04/07 13:52:28;;;;;;;;;;;;;;;-142.21;100.00;66915.31;4885340;29;1528;-92
2022/04/07 13:55:51;;;;;;;;;;;;;;;-142.21;100.00;66915.31;4983131;28;1160;-92
2022/04/07 13:59:15;;;;;;;;;;;;;;;-142.21;100.00;66915.31;4999434;28;1276;-92
2022/04/07 14:06:38;;;;;;;;;;;;;;;-142.21;100.00;66915.31;4972638;28;1838;-91
2022/04/07 14:10:02;;;;;;;;;;;;;;;-142.21;100.00;66915.31;4978897;28;1533;-91
2022/04/07 14:13:26;;;;;;;;;;;;;;;-142.21;100.00;66915.31;4973986;28;1379;-91
2022/04/07 14:16:50;;;;;;;;;;;;;;;-142.21;100.00;66915.31;4980652;28;1409;-92
2022/04/07 14:20:16;;;;;;;;;;;;;;;-142.21;100.00;66915.31;4983842;28;1123;-91
2022/04/07 14:23:48;;;;;;;;;;;;;;;-142.21;100.00;66915.31;4965032;28;1898;-91
2022/04/07 14:27:12;;;;;;;;;;;;;;;-142.21;100.00;66915.31;4975401;28;1323;-92
2022/04/07 14:30:36;;;;;;;;;;;;;;;-142.21;100.00;66915.31;4979631;28;1725;-91
2022/04/07 14:34:02;;;;;;;;;;;;;;;-142.21;100.00;66915.31;4979317;28;1623;-92
2022/04/07 14:37:26;;;;;;;;;;;;;;;-142.21;100.00;66915.31;4984722;28;1339;-92
2022/04/07 14:40:49;;;;;;;;;;;;;;;-142.21;100.00;66915.31;4992748;28;1524;-92
2022/04/07 14:44:22;;;;;;;;;;;;;;;-142.21;100.00;66915.31;4995063;28;1966;-92
2022/04/07 14:48:11;;;;;;;;;;;;;;;-142.21;100.00;66915.31;4987448;28;1710;-92
2022/04/07 14:51:35;;;;;;;;;;;;;;;-142.21;100.00;66915.31;4996101;28;1284;-92
2022/04/07 14:55:40;;;;;;;;;;;;;;;-142.21;100.00;66915.31;5001703;28;1642;-92
2022/04/07 14:59:04;;;;;;;;;;;;;;;-142.21;100.00;66915.31;4985046;28;1434;-92
